AirNav   Everest Fuels
 
 840 users online  

9OR6 Oregon Health Sciences University Emergency Heliport
Portland, Oregon, USA

GOING TO PORTLAND?


FAA INFORMATION EFFECTIVE 10 OCTOBER 2019

Location

FAA Identifier: 9OR6
Lat/Long: 45-29-56.9900N 122-41-06.6000W
45-29.949833N 122-41.110000W
45.4991639,-122.6851667
(estimated)
Elevation: 621 ft. / 189 m (estimated)
Variation: 16E (2010)
From city: 2 miles N of PORTLAND, OR
Time zone: UTC -7 (UTC -8 during Standard Time)
Zip code: 97201

Heliport Operations

Heliport use: Private use, MEDICAL USE.
Activation date: 12/1979
Control tower: no
ARTCC: SEATTLE CENTER
FSS: MC MINNVILLE FLIGHT SERVICE STATION
NOTAMs facility: FDC (NOTAM-D service not available)
Attendance: CONTINUOUS
Wind indicator: lighted
Segmented circle: no
Lights: FOR PERI LGTS CALL 503-494-7744.

Heliport Communications

WX ASOS at PDX (7 nm NE): PHONE (503) 493-7687
WX ASOS at VUO (7 nm N): 135.125 (360-696-1280)
WX ASOS at HIO (11 nm W): PHONE 503-640-2984
WX ASOS at TTD (12 nm E): 135.625 (503-492-2887)
WX ASOS at UAO (16 nm S): PHONE 503-678-3011
WX ASOS at SPB (18 nm NW): 135.875 (503-543-6401)

Nearby radio navigation aids

VOR radial/distance  VOR name  Freq  Var
UBGr034/15.1NEWBERG VOR/DME117.4021E
BTGr174/15.4BATTLE GROUND VORTAC116.6021E

 
NDB name  Hdg/Dist  Freq  Var  ID
BANKS101/17.135616EPND .--. -. -..

Heliport Services

Runway Information

Helipad H1

Dimensions: 56 x 59 ft. / 17 x 18 m
Surface: concrete, in good condition
Runway edge lights: PERI
Latitude: 45-29.949833N
Longitude: 122-41.110000W
Elevation: 621.0 ft.
Traffic pattern: leftleft
Markings: none, in good condition

Heliport Ownership and Management from official FAA records

Ownership: Privately-owned
Owner: OREGON HEALTH SCIENCES UNIV
3181 SW SAM JACKSON PARK ROAD
PORTLAND, OR 97239
Phone 503-494-8311
Manager: SKAI DANCEY
3181 SW SAM JACKSON PARK ROAD
PORTLAND, OR 97239
Phone 503-494-5892

Additional Remarks

FOR CD CTC PORTLAND APCH AT 503-493-7545.

Instrument Procedures

There are no published instrument procedures at 9OR6.

Some nearby airports with instrument procedures:

KPDX - Portland International Airport (7 nm NE)
KVUO - Pearson Field Airport (7 nm N)
KHIO - Portland-Hillsboro Airport (11 nm W)
KTTD - Portland-Troutdale Airport (12 nm E)
KUAO - Aurora State Airport (16 nm S)
KSPB - Scappoose Industrial Airpark (18 nm NW)
 
Loc | Ops | Rwys | IFR | FBO | Links
Com | Nav | Svcs | Stats | Notes
Area around 9OR6 (Oregon Health Sciences University Emergency Heliport)
 
Road maps at: MapQuest Bing Google
 
Aerial photo
No photo
 
Sectional chart

 
Airport distance calculator
Flying to Oregon Health Sciences University Emergency Heliport? Find the distance to fly.

From to 9OR6

Sunrise and sunset
Times for 19-Oct-2019
 Local
(UTC-7)
 Zulu
(UTC)
Morning civil twilight07:0314:03
Sunrise07:3414:34
Sunset18:1801:18
Evening civil twilight18:4801:48

Current date and time
Zulu (UTC)  19-Oct-2019 13:39:22
Local (UTC-7)  19-Oct-2019 06:39:22
 
METAR
KPDX 
6nm NE 
191253Z 25010KT 10SM FEW036 BKN055 OVC070 12/09 A2970 RMK AO2 SLP057 T01170089
KVUO 
7nm N 
191253Z AUTO 26008KT 10SM -RA FEW046 BKN055 BKN070 12/09 A2969 RMK AO2 RAE1157B49 SLP056 P0000 T01170089
KHIO 
12nm W 
191253Z 26008KT 10SM -RA FEW046 BKN060 OVC075 10/08 A2970 RMK AO2 RAB47 SLP056 P0000 T01000083
KTTD 
12nm E 
191253Z AUTO 25012KT 10SM FEW022 BKN049 BKN060 12/09 A2969 RMK AO2 RAB06E26 SLP053 P0000 T01170089
KUAO 
15nm S 
191253Z AUTO 22007KT 10SM BKN095 BKN120 11/08 A2973 RMK AO2 SLP068 T01110083
KSPB 
18nm NW 
191253Z AUTO 21005KT 10SM -RA SCT046 SCT055 BKN070 10/08 A2968 RMK AO2 RAB24 SLP050 P0000 T01000083
TAF
KPDX 
6nm NE 
191134Z 1912/2012 28011KT 6SM -RA SCT008 OVC018 FM191300 26014G22KT P6SM -SHRA SCT015 BKN035 OVC050 FM191800 24014G22KT P6SM -SHRA SCT025 BKN060 FM200100 27009KT P6SM VCSH SCT025 BKN070 FM200900 20005KT P6SM FEW050 OVC120
KHIO 
12nm W 
191134Z 1912/2012 21010KT P6SM -SHRA SCT010 BKN025 OVC050 FM191400 22010KT P6SM -SHRA SCT012 BKN035 OVC060 FM191700 23012G22KT P6SM -SHRA SCT015 BKN035 BKN060 FM192300 25010KT P6SM VCSH SCT020 BKN060 FM200300 26005KT P6SM SCT025 BKN070
KTTD 
12nm E 
191134Z 1912/2012 21008KT 4SM RA SCT008 OVC022 FM191300 22010KT P6SM -SHRA SCT012 BKN035 OVC045 FM191800 24010G18KT P6SM -SHRA SCT020 BKN035 BKN050 FM200000 26007KT P6SM VCSH SCT025 BKN060 FM200600 22004KT P6SM FEW030 BKN070
KUAO 
15nm S 
191134Z 1912/2012 22015G24KT P6SM -SHRA SCT010 BKN035 OVC050 FM191800 24012G22KT P6SM -SHRA SCT015 BKN035 BKN060 FM200000 24010KT P6SM VCSH SCT025 BKN060 FM200400 21005KT P6SM FEW030 BKN070
NOTAMs
Click for the latest NOTAMs
NOTAMs are issued by the DoD/FAA and will open in a separate window not controlled by AirNav.

 

 
 

Would you like to see your business listed on this page?

 If your business provides an interesting product or service to pilots, flight crews, aircraft, or users of the Oregon Health Sciences University Emergency Heliport, you should consider listing it here.  To start the listing process, click on the button below
 
Add a business
 

Other Pages about Oregon Health Sciences University Emergency Heliport

Update a link
 
Copyright © AirNav, LLC. All rights reserved. Privacy Policy  Contact